Time;durP1;ratioP1;P1;durP2;ratioP2;P2;SDS_P1;SDS_P2;PMS_P1;PMS_P2;Temp;Humidity;BMP_temperature;BMP_pressure;BME280_temperature;BME280_humidity;BME280_pressure;Samples;Min_cycle;Max_cycle;Signal;HPM_P1;HPM_P2
2022/07/24 00:00:48;;;;;;;43.50;27.33;;;;;;;19.11;100.00;99922.09;4200945;28;20237;-47
2022/07/24 00:03:14;;;;;;;45.47;26.33;;;;;;;19.09;100.00;99923.34;4209440;28;20233;-55
2022/07/24 00:05:41;;;;;;;42.63;27.40;;;;;;;19.05;100.00;99916.72;4196380;28;20952;-48
2022/07/24 00:08:07;;;;;;;38.07;25.97;;;;;;;19.07;100.00;99920.84;4216355;28;21126;-49
2022/07/24 00:10:34;;;;;;;38.90;26.47;;;;;;;19.09;100.00;99923.34;4200219;28;20831;-44
2022/07/24 00:13:01;;;;;;;40.57;27.67;;;;;;;19.07;100.00;99922.72;4208288;28;20233;-48
2022/07/24 00:15:30;;;;;;;39.17;27.33;;;;;;;19.04;100.00;99926.69;4199243;28;20241;-49
2022/07/24 00:17:57;;;;;;;41.43;26.80;;;;;;;19.07;100.00;99930.81;4177462;28;23477;-58
2022/07/24 00:20:23;;;;;;;39.77;27.23;;;;;;;19.12;100.00;99933.69;4203380;28;21488;-47
2022/07/24 00:22:50;;;;;;;41.43;27.40;;;;;;;19.06;100.00;99926.44;4210655;28;20447;-47
2022/07/24 00:25:16;;;;;;;41.60;26.57;;;;;;;19.03;100.00;99932.28;4218827;28;20450;-49
2022/07/24 00:27:43;;;;;;;39.13;26.77;;;;;;;19.16;100.00;99921.44;4210710;28;22313;-50
2022/07/24 00:30:10;;;;;;;40.33;27.27;;;;;;;19.11;100.00;99929.34;4215368;28;20304;-51
2022/07/24 00:32:37;;;;;;;41.43;27.30;;;;;;;19.01;100.00;99926.25;4203034;28;20246;-48
2022/07/24 00:35:04;;;;;;;41.80;27.13;;;;;;;19.01;100.00;99927.13;4214022;28;20270;-49
2022/07/24 00:37:30;;;;;;;36.27;25.57;;;;;;;19.03;100.00;99925.00;4218648;28;20233;-50
2022/07/24 00:39:57;;;;;;;43.80;25.80;;;;;;;18.98;100.00;99932.91;4200851;28;20243;-46
2022/07/24 00:42:23;;;;;;;39.23;26.37;;;;;;;19.02;100.00;99936.03;4204741;28;22798;-47
2022/07/24 00:44:50;;;;;;;38.83;26.93;;;;;;;19.06;100.00;99938.09;4199958;28;20241;-46
2022/07/24 00:47:16;;;;;;;40.13;26.00;;;;;;;19.05;100.00;99938.28;4197716;28;20241;-50
2022/07/24 00:49:44;;;;;;;38.83;26.23;;;;;;;19.08;100.00;99935.16;4206300;28;23483;-47
2022/07/24 00:52:10;;;;;;;42.20;26.97;;;;;;;19.14;100.00;99947.81;4202752;28;21622;-50
2022/07/24 00:54:37;;;;;;;40.57;26.43;;;;;;;19.04;100.00;99947.44;4203562;28;20256;-44
2022/07/24 00:57:04;;;;;;;46.43;27.83;;;;;;;19.00;100.00;99951.59;4201756;28;20267;-47
2022/07/24 00:59:31;;;;;;;45.40;26.80;;;;;;;19.02;100.00;99957.59;4194333;28;20264;-47
2022/07/24 01:01:58;;;;;;;40.23;27.67;;;;;;;18.97;100.00;99955.53;4205921;28;20444;-51
2022/07/24 01:04:25;;;;;;;40.27;27.63;;;;;;;18.95;100.00;99953.03;4210337;28;20314;-61
2022/07/24 01:06:52;;;;;;;38.67;27.63;;;;;;;18.90;100.00;99952.84;4197696;28;20237;-62
2022/07/24 01:09:18;;;;;;;38.20;25.87;;;;;;;18.92;100.00;99955.34;4193471;28;20231;-62
2022/07/24 01:11:45;;;;;;;40.27;25.73;;;;;;;18.89;100.00;99945.78;4292294;28;20237;-64
2022/07/24 01:14:13;;;;;;;37.23;24.57;;;;;;;18.91;100.00;99954.50;4201821;28;20824;-61
2022/07/24 01:16:39;;;;;;;36.67;24.33;;;;;;;18.91;100.00;99959.06;4187407;28;20340;-60
2022/07/24 01:19:06;;;;;;;37.07;21.63;;;;;;;18.76;100.00;99962.84;4195789;28;21337;-63
2022/07/24 01:21:33;;;;;;;30.73;16.97;;;;;;;18.64;100.00;99964.50;4184317;28;20241;-61
2022/07/24 01:24:00;;;;;;;22.87;14.07;;;;;;;18.55;100.00;99971.94;4188204;28;20826;-61
2022/07/24 01:26:27;;;;;;;18.90;10.37;;;;;;;18.46;100.00;99967.81;4192241;28;21356;-61
2022/07/24 01:28:54;;;;;;;13.53;8.00;;;;;;;18.29;100.00;99982.75;4183442;28;22801;-61
2022/07/24 01:31:21;;;;;;;13.47;7.50;;;;;;;18.18;100.00;99983.34;4194593;28;20233;-62
2022/07/24 01:33:47;;;;;;;13.13;7.20;;;;;;;18.02;100.00;99977.31;4195233;28;20269;-61
2022/07/24 01:36:14;;;;;;;7.67;5.00;;;;;;;17.87;100.00;99982.06;4201532;28;20236;-61
2022/07/24 01:38:41;;;;;;;9.40;4.30;;;;;;;17.73;100.00;99990.06;4202350;28;20231;-63
2022/07/24 01:41:07;;;;;;;10.27;4.20;;;;;;;17.64;100.00;99985.06;4190335;28;20649;-65
2022/07/24 01:43:33;;;;;;;7.60;3.80;;;;;;;17.46;100.00;99985.63;4197367;28;20241;-62
2022/07/24 01:46:00;;;;;;;8.93;4.20;;;;;;;17.48;100.00;99986.25;4193954;28;20493;-62
2022/07/24 01:48:27;;;;;;;10.00;3.77;;;;;;;17.44;100.00;99988.53;4194029;28;20233;-62
2022/07/24 01:50:53;;;;;;;10.27;3.60;;;;;;;17.37;100.00;99989.50;4194722;28;26351;-62
2022/07/24 01:53:20;;;;;;;8.10;3.70;;;;;;;17.23;100.00;99989.47;4206784;28;20232;-64
2022/07/24 01:55:50;;;;;;;8.50;4.10;;;;;;;17.18;100.00;99985.69;4197297;28;20336;-62
2022/07/24 01:58:16;;;;;;;7.37;3.93;;;;;;;17.18;100.00;99986.53;4193016;28;20232;-62
2022/07/24 02:00:44;;;;;;;9.13;3.90;;;;;;;17.10;100.00;99989.38;4199897;28;20303;-60
2022/07/24 02:03:10;;;;;;;5.93;3.47;;;;;;;17.13;100.00;99988.97;4201404;28;20852;-62
2022/07/24 02:05:37;;;;;;;7.87;3.87;;;;;;;17.09;100.00;99993.09;4191960;28;20324;-60
2022/07/24 02:08:03;;;;;;;9.63;3.43;;;;;;;17.04;100.00;99988.34;4198198;28;20262;-60
2022/07/24 02:10:30;;;;;;;9.73;3.63;;;;;;;17.09;100.00;99998.47;4194375;28;20588;-60
2022/07/24 02:12:57;;;;;;;7.90;4.20;;;;;;;17.07;100.00;99997.88;4182735;28;20276;-61
2022/07/24 02:15:24;;;;;;;5.53;3.67;;;;;;;17.03;100.00;99999.28;4193247;28;20307;-60
2022/07/24 02:17:54;;;;;;;8.33;3.70;;;;;;;17.08;100.00;99999.50;4197390;28;23409;-60
2022/07/24 02:20:20;;;;;;;5.90;3.67;;;;;;;17.08;100.00;99999.50;4197677;28;20233;-61
2022/07/24 02:22:49;;;;;;;8.40;3.87;;;;;;;17.11;100.00;99999.09;4186162;28;25522;-61
2022/07/24 02:25:15;;;;;;;6.13;3.80;;;;;;;17.02;100.00;99998.47;4195116;28;20369;-63
2022/07/24 02:27:42;;;;;;;9.43;3.87;;;;;;;16.96;100.00;99998.41;4194129;28;20258;-61
2022/07/24 02:30:15;;;;;;;12.10;3.80;;;;;;;16.85;100.00;99994.41;4213320;28;20301;-61
2022/07/24 02:32:41;;;;;;;7.67;3.60;;;;;;;16.87;100.00;99992.34;4203619;28;20341;-61
2022/07/24 02:35:08;;;;;;;9.57;3.23;;;;;;;16.86;100.00;100001.47;4216605;28;20652;-60
2022/07/24 02:37:37;;;;;;;6.27;3.43;;;;;;;16.87;100.00;100003.09;4189682;28;20310;-61
2022/07/24 02:40:05;;;;;;;8.20;3.63;;;;;;;16.82;100.00;99998.31;4192005;28;20379;-61
2022/07/24 02:42:31;;;;;;;6.73;3.07;;;;;;;16.75;100.00;99997.41;4201354;28;21771;-60
2022/07/24 02:44:58;;;;;;;7.60;3.37;;;;;;;16.72;100.00;99997.00;4202473;28;20304;-61
2022/07/24 02:47:24;;;;;;;10.93;3.47;;;;;;;16.75;100.00;100002.78;4195374;28;23383;-61
2022/07/24 02:49:51;;;;;;;7.93;3.23;;;;;;;16.61;100.00;99985.72;4199531;28;20442;-64
2022/07/24 02:52:17;;;;;;;7.80;3.00;;;;;;;16.63;100.00;99985.56;4199544;28;20241;-61
2022/07/24 02:54:44;;;;;;;7.63;3.20;;;;;;;16.66;100.00;99985.16;4197456;28;21872;-62
2022/07/24 02:57:10;;;;;;;11.70;3.27;;;;;;;16.74;100.00;99995.75;4200188;28;20232;-61
2022/07/24 02:59:37;;;;;;;8.13;3.50;;;;;;;16.79;100.00;100000.59;4200607;28;20307;-65
2022/07/24 03:02:03;;;;;;;7.47;3.10;;;;;;;16.70;100.00;99997.16;4199498;28;20236;-61
2022/07/24 03:04:30;;;;;;;6.17;3.30;;;;;;;16.71;100.00;99990.75;4193888;28;20232;-61
2022/07/24 03:06:56;;;;;;;7.23;2.73;;;;;;;16.70;100.00;99999.88;4201067;28;21069;-64
2022/07/24 03:09:23;;;;;;;9.07;3.10;;;;;;;16.61;100.00;99998.34;4206592;28;20241;-62
2022/07/24 03:11:50;;;;;;;4.93;2.93;;;;;;;16.67;100.00;100003.78;4193433;28;20299;-61
2022/07/24 03:14:16;;;;;;;9.47;3.73;;;;;;;16.73;100.00;100012.06;4200566;28;20963;-61
2022/07/24 03:16:42;;;;;;;9.57;2.90;;;;;;;16.82;100.00;100010.94;4203175;28;20233;-60
2022/07/24 03:19:09;;;;;;;11.87;3.60;;;;;;;16.76;100.00;100012.50;4201591;28;25200;-63
2022/07/24 03:21:36;;;;;;;7.90;3.40;;;;;;;16.78;100.00;100023.88;4207392;28;20604;-62
2022/07/24 03:24:14;;;;;;;7.80;2.70;;;;;;;16.89;100.00;100027.94;4213577;28;21332;-61
2022/07/24 03:26:41;;;;;;;6.37;3.20;;;;;;;16.85;100.00;100030.16;4207814;28;20245;-62
2022/07/24 03:29:08;;;;;;;8.43;3.03;;;;;;;16.76;100.00;100025.94;4207308;28;20279;-64
2022/07/24 03:31:35;;;;;;;6.90;3.13;;;;;;;16.84;100.00;100030.38;4203586;28;20233;-62
2022/07/24 03:34:01;;;;;;;7.73;3.30;;;;;;;16.91;100.00;100030.44;4217815;28;20606;-62
2022/07/24 03:36:28;;;;;;;6.87;3.10;;;;;;;16.93;100.00;100029.22;4195365;28;20311;-61
2022/07/24 03:38:55;;;;;;;5.60;3.00;;;;;;;16.90;100.00;100031.44;4195698;28;20241;-61
2022/07/24 03:41:21;;;;;;;6.40;3.40;;;;;;;16.86;100.00;100037.22;4212501;28;21153;-61
2022/07/24 03:43:49;;;;;;;5.77;3.23;;;;;;;16.80;100.00;100040.69;4183607;28;20245;-61
2022/07/24 03:46:16;;;;;;;8.53;4.30;;;;;;;16.74;100.00;100036.06;4184537;28;25482;-60
2022/07/24 03:48:43;;;;;;;8.97;3.60;;;;;;;16.85;100.00;100040.91;4194736;28;21774;-60
2022/07/24 03:51:09;;;;;;;15.67;3.60;;;;;;;16.72;100.00;100034.59;4203727;28;21015;-61
2022/07/24 03:53:37;;;;;;;6.27;3.73;;;;;;;16.65;100.00;100047.97;4200817;28;20386;-64
2022/07/24 03:56:07;;;;;;;15.57;3.90;;;;;;;16.68;100.00;100042.22;4200691;28;21572;-62
2022/07/24 03:58:36;;;;;;;9.87;3.70;;;;;;;16.71;100.00;100049.88;4202388;28;20232;-58
2022/07/24 04:01:05;;;;;;;8.20;3.60;;;;;;;16.64;100.00;100040.94;4197279;28;20267;-64
2022/07/24 04:03:33;;;;;;;5.47;3.60;;;;;;;16.73;100.00;100044.31;4202105;28;21181;-59
2022/07/24 04:06:04;;;;;;;6.07;3.73;;;;;;;16.68;100.00;100048.41;4197332;28;26670;-60
2022/07/24 04:08:32;;;;;;;6.97;3.83;;;;;;;16.73;100.00;100055.88;4187721;28;20311;-63
2022/07/24 04:10:59;;;;;;;14.03;4.20;;;;;;;16.57;100.00;100053.47;4197126;28;20247;-61
2022/07/24 04:13:27;;;;;;;5.87;3.40;;;;;;;16.70;100.00;100058.97;4195938;28;20234;-62
2022/07/24 04:15:54;;;;;;;17.90;4.13;;;;;;;16.76;100.00;100066.25;4199481;28;20234;-62
2022/07/24 04:18:22;;;;;;;8.53;3.87;;;;;;;16.66;100.00;100063.06;4212460;28;20229;-60
2022/07/24 04:20:48;;;;;;;11.77;4.07;;;;;;;16.68;100.00;100064.53;4202320;28;21026;-60
2022/07/24 04:23:15;;;;;;;6.07;4.20;;;;;;;16.71;100.00;100063.31;4208084;28;20232;-60
2022/07/24 04:25:44;;;;;;;11.80;4.10;;;;;;;16.58;100.00;100057.84;4204724;28;20327;-61
2022/07/24 04:28:11;;;;;;;8.87;3.90;;;;;;;16.64;100.00;100059.72;4207046;28;22942;-59
2022/07/24 04:30:37;;;;;;;10.80;4.27;;;;;;;16.62;100.00;100059.09;4204682;28;22871;-62
2022/07/24 04:33:04;;;;;;;13.37;3.87;;;;;;;16.54;100.00;100057.38;4211149;28;20241;-61
2022/07/24 04:35:31;;;;;;;7.60;3.77;;;;;;;16.65;100.00;100067.63;4199025;28;20237;-61
2022/07/24 04:37:57;;;;;;;6.17;3.43;;;;;;;16.68;100.00;100064.53;4203092;28;20229;-61
2022/07/24 04:40:24;;;;;;;8.67;3.30;;;;;;;16.80;100.00;100062.19;4208823;28;20299;-60
2022/07/24 04:42:50;;;;;;;13.90;4.03;;;;;;;16.98;100.00;100068.94;4209970;28;20324;-61
2022/07/24 04:45:17;;;;;;;7.10;4.20;;;;;;;16.91;100.00;100070.75;4201646;28;20832;-64
2022/07/24 04:47:43;;;;;;;11.77;4.17;;;;;;;16.72;100.00;100073.03;4209549;28;20865;-60
2022/07/24 04:50:10;;;;;;;8.53;4.20;;;;;;;16.86;100.00;100071.34;4205392;28;20224;-62
2022/07/24 04:52:40;;;;;;;17.80;4.50;;;;;;;16.85;100.00;100073.16;4195667;28;20252;-63
2022/07/24 04:55:07;;;;;;;13.10;4.57;;;;;;;16.85;100.00;100073.16;4201714;28;20358;-61
2022/07/24 04:57:34;;;;;;;8.60;4.40;;;;;;;17.04;100.00;100070.81;4214005;28;22009;-62
2022/07/24 05:00:00;;;;;;;6.73;4.10;;;;;;;16.92;100.00;100075.09;4194568;28;21207;-62
2022/07/24 05:02:28;;;;;;;10.87;4.67;;;;;;;16.92;100.00;100077.78;4215598;28;20301;-61
2022/07/24 05:04:54;;;;;;;10.50;4.47;;;;;;;16.75;100.00;100072.66;4184436;28;20235;-61
2022/07/24 05:07:21;;;;;;;9.37;4.30;;;;;;;16.86;100.00;100074.84;4198560;28;20245;-61
2022/07/24 05:09:48;;;;;;;9.50;4.13;;;;;;;16.95;100.00;100080.06;4207639;28;23510;-60
2022/07/24 05:12:14;;;;;;;10.10;4.30;;;;;;;17.09;100.00;100084.50;4202692;28;20232;-60
2022/07/24 05:14:41;;;;;;;12.00;4.33;;;;;;;17.19;100.00;100082.31;4185818;28;20232;-60
2022/07/24 05:17:07;;;;;;;17.37;4.20;;;;;;;17.32;100.00;100086.09;4199141;28;20673;-62
2022/07/24 05:19:34;;;;;;;12.40;3.80;;;;;;;17.15;100.00;100085.59;4201704;28;20322;-60
2022/07/24 05:22:00;;;;;;;11.10;3.60;;;;;;;17.21;100.00;100087.50;4205119;28;20255;-61
2022/07/24 05:24:27;;;;;;;11.73;3.80;;;;;;;17.35;100.00;100088.41;4200873;28;20914;-63
2022/07/24 05:26:53;;;;;;;8.73;3.20;;;;;;;17.27;98.20;100087.53;4198570;28;24317;-60
2022/07/24 05:29:20;;;;;;;8.30;3.63;;;;;;;17.31;95.60;100087.97;4215612;28;21391;-61
2022/07/24 05:31:47;;;;;;;9.63;3.00;;;;;;;17.22;94.66;100087.28;4203386;28;21699;-62
2022/07/24 05:34:13;;;;;;;7.57;2.37;;;;;;;17.40;91.08;100091.34;4204389;28;21727;-59
2022/07/24 05:36:40;;;;;;;6.33;2.47;;;;;;;17.48;88.74;100089.31;4201068;28;20287;-61
2022/07/24 05:39:07;;;;;;;5.63;2.17;;;;;;;17.72;88.86;100097.91;4202429;28;20674;-63
2022/07/24 05:41:34;;;;;;;7.07;2.53;;;;;;;17.82;85.61;100097.59;4195153;28;20240;-63
2022/07/24 05:44:01;;;;;;;14.03;2.63;;;;;;;17.96;85.90;100102.00;4209913;28;20241;-62
2022/07/24 05:46:29;;;;;;;4.87;2.00;;;;;;;18.12;83.79;100098.09;4207169;28;20740;-61
2022/07/24 05:48:56;;;;;;;7.07;2.03;;;;;;;18.58;82.09;100100.06;4199510;28;21128;-64
2022/07/24 05:51:23;;;;;;;4.33;1.97;;;;;;;19.13;79.65;100097.19;4203141;28;21239;-62
2022/07/24 05:53:49;;;;;;;7.10;1.80;;;;;;;19.74;76.11;100104.97;4204011;28;20226;-62
2022/07/24 05:56:20;;;;;;;3.97;2.20;;;;;;;20.28;72.90;100112.84;4188699;28;20243;-62
2022/07/24 05:58:46;;;;;;;6.47;2.03;;;;;;;20.43;72.13;100111.47;4207470;28;22316;-63
2022/07/24 06:01:17;;;;;;;8.47;2.00;;;;;;;20.75;69.53;100125.03;4200260;28;20314;-60
2022/07/24 06:03:43;;;;;;;6.60;1.80;;;;;;;21.60;63.51;100119.06;4200062;28;21043;-60
2022/07/24 06:06:10;;;;;;;8.77;1.73;;;;;;;21.46;61.85;100128.38;4202880;28;20233;-64
2022/07/24 06:08:37;;;;;;;3.37;1.50;;;;;;;22.28;59.34;100139.72;4211241;28;20240;-62
2022/07/24 06:11:04;;;;;;;5.23;1.70;;;;;;;23.21;55.91;100140.22;4214043;28;20237;-63
2022/07/24 06:13:31;;;;;;;3.83;1.40;;;;;;;23.70;53.41;100137.25;4196538;28;21757;-61
2022/07/24 06:15:57;;;;;;;9.37;1.43;;;;;;;24.11;49.99;100144.34;4203690;28;21934;-63
2022/07/24 06:18:24;;;;;;;8.57;1.60;;;;;;;23.64;51.77;100144.44;4212457;28;20241;-61
2022/07/24 06:20:51;;;;;;;6.53;1.60;;;;;;;23.94;50.81;100138.84;4201192;28;23664;-62
2022/07/24 06:23:17;;;;;;;7.53;1.40;;;;;;;24.08;49.89;100147.56;4202143;28;20235;-63
2022/07/24 06:25:47;;;;;;;5.60;1.80;;;;;;;24.66;46.90;100142.97;4205553;28;20441;-64
2022/07/24 06:28:14;;;;;;;4.83;1.70;;;;;;;24.87;47.36;100154.22;4212061;28;22210;-62
2022/07/24 06:30:41;;;;;;;3.83;1.33;;;;;;;25.08;47.03;100148.03;4206009;28;22617;-63
2022/07/24 06:33:07;;;;;;;4.03;1.70;;;;;;;25.47;45.48;100150.81;4207118;28;20236;-62
2022/07/24 06:35:34;;;;;;;3.43;1.17;;;;;;;25.34;44.30;100156.63;4218571;28;20240;-64
2022/07/24 06:38:00;;;;;;;5.70;1.10;;;;;;;24.58;45.95;100149.66;4202406;28;20230;-61
2022/07/24 06:40:27;;;;;;;4.53;1.20;;;;;;;24.98;46.08;100153.28;4217934;28;20833;-63
2022/07/24 06:42:54;;;;;;;3.07;1.00;;;;;;;25.40;44.64;100152.88;4213859;28;20236;-62
2022/07/24 06:45:20;;;;;;;6.10;1.33;;;;;;;25.57;43.75;100153.69;4185104;28;20284;-63
2022/07/24 06:47:47;;;;;;;4.80;1.27;;;;;;;25.69;41.77;100157.13;4205073;28;20245;-62
2022/07/24 06:50:14;;;;;;;9.33;1.20;;;;;;;26.03;40.21;100158.94;4207015;28;23438;-62
2022/07/24 06:52:40;;;;;;;3.27;1.23;;;;;;;25.61;41.21;100159.47;4209360;28;20276;-62
2022/07/24 06:55:08;;;;;;;4.53;0.90;;;;;;;25.96;40.51;100156.41;4208304;28;20295;-64
2022/07/24 06:57:34;;;;;;;3.57;1.03;;;;;;;25.78;41.63;100162.13;4209672;28;20303;-53
2022/07/24 07:00:01;;;;;;;5.30;1.40;;;;;;;26.95;39.59;100170.88;4202123;28;20534;-49
2022/07/24 07:02:28;;;;;;;3.37;1.10;;;;;;;27.14;38.69;100176.75;4201942;28;20985;-50
2022/07/24 07:04:56;;;;;;;2.77;0.80;;;;;;;26.08;40.79;100170.75;4212120;28;20246;-50
2022/07/24 07:07:24;;;;;;;4.97;1.20;;;;;;;25.85;40.28;100165.53;4212991;28;21844;-63
2022/07/24 07:09:50;;;;;;;3.27;1.10;;;;;;;25.95;39.89;100164.88;4210014;28;20236;-62
2022/07/24 07:12:17;;;;;;;4.13;1.10;;;;;;;25.52;41.10;100159.09;4218804;28;20308;-63
2022/07/24 07:14:44;;;;;;;5.07;1.10;;;;;;;25.96;39.51;100164.59;4214439;28;20845;-64
2022/07/24 07:17:10;;;;;;;9.20;1.40;;;;;;;27.01;37.90;100177.19;4212979;28;20240;-62
2022/07/24 07:19:37;;;;;;;2.50;1.10;;;;;;;27.56;36.59;100187.75;4203526;28;20236;-65
2022/07/24 07:22:03;;;;;;;9.70;1.30;;;;;;;26.91;38.14;100176.00;4207404;28;20419;-63
2022/07/24 07:24:30;;;;;;;5.43;1.07;;;;;;;26.44;39.95;100168.44;4217321;28;20607;-66
2022/07/24 07:26:56;;;;;;;2.90;1.20;;;;;;;26.94;39.44;100174.66;4196738;28;20241;-62
2022/07/24 07:29:23;;;;;;;4.93;1.30;;;;;;;25.74;41.42;100163.75;4209617;28;20227;-66
2022/07/24 07:31:55;;;;;;;2.17;1.00;;;;;;;26.43;39.87;100171.41;4206698;28;20334;-63
2022/07/24 07:34:22;;;;;;;6.13;1.20;;;;;;;26.64;39.05;100177.94;4198526;28;20549;-64
2022/07/24 07:36:49;;;;;;;5.57;1.00;;;;;;;26.73;37.91;100179.13;4203482;28;21422;-65
2022/07/24 07:39:15;;;;;;;2.77;1.00;;;;;;;25.73;40.62;100175.69;4212590;28;20237;-69
2022/07/24 07:41:42;;;;;;;7.97;1.03;;;;;;;25.28;41.26;100172.06;4211467;28;20241;-64
2022/07/24 07:44:08;;;;;;;4.13;1.00;;;;;;;24.17;44.41;100162.44;4200436;28;20245;-63
2022/07/24 07:46:35;;;;;;;5.83;1.27;;;;;;;23.78;45.25;100155.91;4212469;28;21880;-65
2022/07/24 07:49:03;;;;;;;4.17;1.40;;;;;;;23.60;46.59;100165.84;4222571;28;20422;-64
2022/07/24 07:51:30;;;;;;;1.97;1.23;;;;;;;23.33;48.32;100164.66;4212747;28;22033;-65
2022/07/24 07:53:56;;;;;;;4.77;1.50;;;;;;;23.12;48.27;100166.88;4205503;28;20608;-66
2022/07/24 07:56:23;;;;;;;3.93;1.80;;;;;;;22.71;50.58;100165.84;4199426;28;20314;-66
2022/07/24 07:58:50;;;;;;;3.83;1.63;;;;;;;23.03;49.55;100159.31;4214928;28;20332;-67
2022/07/24 08:01:16;;;;;;;3.47;1.60;;;;;;;23.14;49.38;100167.47;4210689;28;20973;-65
2022/07/24 08:03:43;;;;;;;5.10;1.80;;;;;;;22.48;50.47;100177.41;4218587;28;20309;-67
2022/07/24 08:06:09;;;;;;;4.20;2.00;;;;;;;22.08;53.02;100169.78;4196133;28;21160;-66
2022/07/24 08:08:41;;;;;;;4.83;1.97;;;;;;;21.86;53.31;100169.41;4196443;28;20347;-64
2022/07/24 08:11:07;;;;;;;5.87;1.83;;;;;;;22.65;51.90;100180.31;4243404;28;20609;-64
2022/07/24 08:13:34;;;;;;;3.53;1.63;;;;;;;23.22;49.21;100179.88;4251977;28;21099;-64
2022/07/24 08:16:01;;;;;;;4.07;1.63;;;;;;;23.62;48.13;100181.06;4268138;28;21242;-63
2022/07/24 08:18:28;;;;;;;4.17;1.73;;;;;;;23.77;48.24;100189.59;4216573;28;20251;-64
2022/07/24 08:20:55;;;;;;;8.13;2.13;;;;;;;23.11;50.25;100186.94;4210949;28;21361;-64
2022/07/24 08:23:22;;;;;;;3.57;2.00;;;;;;;22.38;53.23;100181.72;4200551;28;23604;-64
2022/07/24 08:25:48;;;;;;;3.63;2.30;;;;;;;21.57;56.00;100186.41;4195810;28;20239;-65
2022/07/24 08:28:15;;;;;;;7.10;2.53;;;;;;;21.56;56.30;100176.59;4201953;28;20672;-64
2022/07/24 08:30:41;;;;;;;4.13;2.00;;;;;;;21.33;57.97;100182.59;4197037;28;20231;-66
2022/07/24 08:33:08;;;;;;;4.90;2.77;;;;;;;21.46;57.98;100175.22;4254451;28;20298;-62
2022/07/24 08:35:35;;;;;;;4.53;1.90;;;;;;;21.89;56.18;100178.94;4202566;28;20250;-64
2022/07/24 08:38:03;;;;;;;3.80;2.20;;;;;;;21.46;56.94;100180.63;4269334;28;25115;-64
2022/07/24 08:40:35;;;;;;;5.13;2.20;;;;;;;21.58;57.77;100178.03;4269173;28;20237;-64
2022/07/24 08:43:04;;;;;;;4.80;2.00;;;;;;;21.17;59.50;100184.84;4214271;28;22193;-64
2022/07/24 08:45:35;;;;;;;7.83;2.23;;;;;;;21.22;60.31;100181.47;4234577;28;20460;-65
2022/07/24 08:48:05;;;;;;;4.03;2.03;;;;;;;21.71;59.49;100191.44;4217512;28;20240;-63
2022/07/24 08:50:33;;;;;;;4.17;1.70;;;;;;;22.15;57.88;100194.09;4249865;28;20232;-62
2022/07/24 08:53:03;;;;;;;4.20;1.60;;;;;;;22.26;57.42;100190.63;4254635;28;22624;-63
2022/07/24 08:55:30;;;;;;;2.97;1.73;;;;;;;21.78;59.10;100194.09;4228802;28;20256;-65
2022/07/24 08:57:59;;;;;;;5.63;2.47;;;;;;;21.47;59.18;100178.78;4233451;28;20233;-65
2022/07/24 09:00:27;;;;;;;5.00;2.00;;;;;;;21.11;61.64;100180.28;4226087;28;20251;-64
2022/07/24 09:02:54;;;;;;;3.73;2.13;;;;;;;20.70;63.50;100188.91;4235600;28;20237;-63
2022/07/24 09:05:21;;;;;;;2.80;1.67;;;;;;;20.64;63.30;100180.63;4227205;28;20250;-68
2022/07/24 09:08:12;;;;;;;3.03;1.80;;;;;;;20.69;62.60;100181.84;4242612;28;20235;-64
2022/07/24 09:10:39;;;;;;;2.47;1.50;;;;;;;20.72;63.19;100187.66;4220198;28;20236;-68
2022/07/24 09:13:14;;;;;;;3.50;1.80;;;;;;;20.84;62.52;100190.50;4236408;28;20254;-65
2022/07/24 09:15:46;;;;;;;4.57;1.77;;;;;;;20.87;63.03;100190.88;4202734;28;22522;-66
2022/07/24 09:18:32;;;;;;;2.40;1.40;;;;;;;20.97;62.10;100192.28;4200292;28;20233;-60
2022/07/24 09:21:19;;;;;;;3.40;1.40;;;;;;;21.00;61.52;100189.97;4212925;28;20242;-66
2022/07/24 09:23:47;;;;;;;3.03;1.10;;;;;;;20.99;61.38;100190.19;4188780;28;21038;-65
2022/07/24 09:26:13;;;;;;;2.10;1.00;;;;;;;21.26;60.36;100196.22;4210382;28;20272;-64
2022/07/24 09:28:50;;;;;;;1.97;1.13;;;;;;;21.22;60.11;100195.00;4201687;28;20316;-63
2022/07/24 09:31:17;;;;;;;3.30;1.37;;;;;;;21.22;61.39;100200.41;4193404;28;20235;-65
2022/07/24 09:33:44;;;;;;;3.77;1.13;;;;;;;20.77;60.97;100190.53;4202454;28;20243;-67
2022/07/24 09:36:13;;;;;;;3.87;1.70;;;;;;;20.60;61.90;100189.38;4200328;28;20326;-64
2022/07/24 09:38:47;;;;;;;2.73;1.70;;;;;;;20.40;63.98;100194.88;4178506;28;20240;-63
2022/07/24 09:41:27;;;;;;;2.43;1.70;;;;;;;20.44;64.34;100190.72;4194217;28;20319;-63
2022/07/24 09:43:59;;;;;;;2.83;1.57;;;;;;;20.41;65.68;100204.63;4206125;28;20604;-64
2022/07/24 09:46:26;;;;;;;4.00;1.50;;;;;;;20.48;65.50;100202.72;4196776;28;20240;-64
2022/07/24 09:48:58;;;;;;;4.40;1.70;;;;;;;20.61;64.95;100205.41;4201902;28;20907;-63
2022/07/24 09:51:27;;;;;;;4.03;1.50;;;;;;;20.80;65.34;100206.31;4206143;28;20249;-64
2022/07/24 09:53:56;;;;;;;2.23;1.53;;;;;;;20.98;64.11;100204.78;4203869;28;20245;-64
2022/07/24 09:56:23;;;;;;;2.93;1.40;;;;;;;20.63;64.95;100199.78;4191708;28;20229;-64
2022/07/24 09:58:55;;;;;;;2.87;1.70;;;;;;;20.61;66.72;100213.50;4205501;28;20300;-65
2022/07/24 10:01:23;;;;;;;3.83;1.60;;;;;;;20.64;66.28;100207.66;4213734;28;20314;-65
2022/07/24 10:03:52;;;;;;;3.53;1.70;;;;;;;20.59;65.82;100209.38;4186539;28;20610;-64
2022/07/24 10:06:22;;;;;;;3.40;1.33;;;;;;;20.54;67.13;100212.69;4199804;28;20331;-67
2022/07/24 10:08:50;;;;;;;1.50;1.03;;;;;;;20.67;66.98;100214.50;4212475;28;21056;-63
2022/07/24 10:11:18;;;;;;;1.70;1.20;;;;;;;20.74;66.20;100211.78;4195244;28;21132;-63
2022/07/24 10:13:46;;;;;;;2.40;1.30;;;;;;;20.79;65.13;100222.75;4200445;28;22043;-62
2022/07/24 10:16:12;;;;;;;2.73;1.30;;;;;;;20.70;66.46;100221.34;4206231;28;20310;-65
2022/07/24 10:18:52;;;;;;;3.40;1.23;;;;;;;20.79;66.90;100225.47;4195456;28;20407;-64
2022/07/24 10:21:24;;;;;;;2.07;1.30;;;;;;;20.58;67.77;100224.75;4199922;28;20296;-64
2022/07/24 10:24:11;;;;;;;2.67;1.37;;;;;;;20.56;69.18;100221.44;4197794;28;20469;-62
2022/07/24 10:26:49;;;;;;;2.90;1.40;;;;;;;20.65;68.37;100228.25;4200030;28;20240;-62
2022/07/24 10:29:19;;;;;;;2.60;1.37;;;;;;;20.69;68.80;100223.22;4202353;28;21877;-64
2022/07/24 10:31:47;;;;;;;5.23;1.30;;;;;;;20.59;70.22;100223.72;4198206;28;20648;-62
2022/07/24 10:34:31;;;;;;;4.83;1.33;;;;;;;21.08;68.90;100229.44;4197173;28;22301;-63
2022/07/24 10:37:23;;;;;;;2.80;1.60;;;;;;;21.35;67.40;100232.75;4201065;28;21838;-64
2022/07/24 10:39:49;;;;;;;3.73;1.43;;;;;;;21.75;65.25;100239.75;4214299;28;24088;-62
2022/07/24 10:42:16;;;;;;;3.30;1.60;;;;;;;21.79;63.89;100232.81;4210193;28;24417;-63
2022/07/24 10:44:44;;;;;;;2.27;1.40;;;;;;;21.45;65.65;100240.44;4194907;28;20308;-64
2022/07/24 10:47:16;;;;;;;3.33;1.60;;;;;;;21.19;66.56;100239.56;4193031;28;20244;-64
2022/07/24 10:49:49;;;;;;;5.70;1.40;;;;;;;21.03;66.74;100240.94;4194409;28;20486;-65
2022/07/24 10:52:30;;;;;;;3.50;1.20;;;;;;;21.12;66.86;100236.09;4192881;28;20331;-64
2022/07/24 10:55:26;;;;;;;3.07;1.50;;;;;;;21.18;66.48;100242.50;4207461;28;20263;-62
2022/07/24 10:58:15;;;;;;;2.40;1.20;;;;;;;21.53;65.05;100242.03;4209290;28;20235;-63
2022/07/24 11:00:46;;;;;;;3.03;1.50;;;;;;;21.70;65.45;100243.13;4209862;28;21754;-62
2022/07/24 11:03:21;;;;;;;2.43;1.40;;;;;;;21.82;61.57;100243.22;4189815;28;20906;-63
2022/07/24 11:06:11;;;;;;;2.97;1.50;;;;;;;22.05;61.51;100245.25;4216092;28;20232;-66
2022/07/24 11:08:38;;;;;;;3.37;1.40;;;;;;;22.55;60.40;100248.66;4198541;28;20264;-64
2022/07/24 11:11:07;;;;;;;3.33;1.67;;;;;;;22.75;59.96;100248.38;4203776;28;20595;-63
2022/07/24 11:13:34;;;;;;;2.57;1.30;;;;;;;22.60;59.52;100252.59;4204177;28;20305;-66
2022/07/24 11:16:26;;;;;;;3.73;1.53;;;;;;;22.12;61.67;100251.44;4188582;28;20655;-65
2022/07/24 11:18:53;;;;;;;5.57;1.50;;;;;;;21.93;62.05;100246.00;4201940;28;21939;-65
2022/07/24 11:21:31;;;;;;;1.93;1.30;;;;;;;22.26;62.17;100244.84;4213460;28;20270;-49
2022/07/24 11:24:13;;;;;;;2.50;1.40;;;;;;;22.00;64.42;100243.22;4209548;28;20331;-44